DGAA/ACC METAR and TAF weather

Enter ICAO airport designator
Station Type Date Time Source
DGAA METAR 2018/04/20 08:00 UTC NOAA

DGAA 200800Z 26012KT CAVOK 28/24 Q1011 NOSIG


Station Type Date Time Source
DGAA Decoded METAR 2018/04/20 08:00 UTC NOAA

Accra, Ghana (DGAA) 05-36N 000-10W 69M
Apr 20, 2018 - 04:00 AM EDT / 2018.04.20 0800 UTC
Wind: from the W (260 degrees) at 14 MPH (12 KT):0
Visibility: greater than 7 mile(s):0
Temperature: 82 F (28 C)
Dew Point: 75 F (24 C)
Relative Humidity: 78%
Pressure (altimeter): 29.85 in. Hg (1011 hPa)
ob: DGAA 200800Z 26012KT CAVOK 28/24 Q1011 NOSIG
cycle: 8

Station Type Date Time Source
DGAA TAF 2018/04/20 06:48 UTC NOAA

TAF TAF DGAA 200500Z 2006/2112 26010KT 9999 FEW013
BECMG 2012/2014 19010KT SCT025
TEMPO 2016/2020 5000 TSRA BKN008 FEW028CB
BECMG 2106/2108 25010KT FEW014


Example: see airport list